sensor_id;sensor_type;location;lat;lon;timestamp;P1;durP1;ratioP1;P2;durP2;ratioP2
74791;SDS011;63319;46.046;17.802;2022-11-20T00:02:07;6.55;;;3.53;;
74791;SDS011;63319;46.046;17.802;2022-11-20T00:05:10;6.82;;;3.65;;
74791;SDS011;63319;46.046;17.802;2022-11-20T00:08:13;6.53;;;3.40;;
74791;SDS011;63319;46.046;17.802;2022-11-20T00:11:17;6.43;;;3.70;;
74791;SDS011;63319;46.046;17.802;2022-11-20T00:14:24;6.82;;;3.63;;
74791;SDS011;63319;46.046;17.802;2022-11-20T00:17:26;5.55;;;3.05;;
74791;SDS011;63319;46.046;17.802;2022-11-20T00:20:29;6.47;;;3.83;;
74791;SDS011;63319;46.046;17.802;2022-11-20T00:23:32;6.80;;;3.70;;
74791;SDS011;63319;46.046;17.802;2022-11-20T00:26:35;6.10;;;3.58;;
74791;SDS011;63319;46.046;17.802;2022-11-20T00:29:37;6.47;;;3.22;;
74791;SDS011;63319;46.046;17.802;2022-11-20T00:32:40;5.70;;;3.10;;
74791;SDS011;63319;46.046;17.802;2022-11-20T00:35:42;6.32;;;3.45;;
74791;SDS011;63319;46.046;17.802;2022-11-20T00:38:45;6.43;;;3.60;;
74791;SDS011;63319;46.046;17.802;2022-11-20T00:41:49;6.35;;;3.08;;
74791;SDS011;63319;46.046;17.802;2022-11-20T00:44:52;6.35;;;3.20;;
74791;SDS011;63319;46.046;17.802;2022-11-20T00:47:54;5.65;;;2.83;;
74791;SDS011;63319;46.046;17.802;2022-11-20T00:50:57;6.35;;;3.40;;
74791;SDS011;63319;46.046;17.802;2022-11-20T00:54:00;6.37;;;3.00;;
74791;SDS011;63319;46.046;17.802;2022-11-20T00:57:04;5.80;;;3.00;;
74791;SDS011;63319;46.046;17.802;2022-11-20T01:00:07;6.00;;;3.40;;
74791;SDS011;63319;46.046;17.802;2022-11-20T01:03:10;5.55;;;3.00;;
74791;SDS011;63319;46.046;17.802;2022-11-20T01:06:16;7.18;;;3.97;;
74791;SDS011;63319;46.046;17.802;2022-11-20T01:09:25;7.60;;;3.33;;
74791;SDS011;63319;46.046;17.802;2022-11-20T01:12:28;5.88;;;3.10;;
74791;SDS011;63319;46.046;17.802;2022-11-20T01:15:33;5.45;;;3.00;;
74791;SDS011;63319;46.046;17.802;2022-11-20T01:18:36;6.28;;;3.40;;
74791;SDS011;63319;46.046;17.802;2022-11-20T01:21:41;7.15;;;3.50;;
74791;SDS011;63319;46.046;17.802;2022-11-20T01:24:45;6.00;;;3.00;;
74791;SDS011;63319;46.046;17.802;2022-11-20T01:27:47;5.38;;;3.15;;
74791;SDS011;63319;46.046;17.802;2022-11-20T01:30:50;6.00;;;3.33;;
74791;SDS011;63319;46.046;17.802;2022-11-20T01:33:54;6.10;;;3.25;;
74791;SDS011;63319;46.046;17.802;2022-11-20T01:37:00;7.07;;;2.92;;
74791;SDS011;63319;46.046;17.802;2022-11-20T01:40:03;6.57;;;3.17;;
74791;SDS011;63319;46.046;17.802;2022-11-20T01:43:12;5.43;;;2.95;;
74791;SDS011;63319;46.046;17.802;2022-11-20T01:46:25;6.15;;;3.45;;
74791;SDS011;63319;46.046;17.802;2022-11-20T01:49:39;5.32;;;2.80;;
74791;SDS011;63319;46.046;17.802;2022-11-20T01:52:48;6.03;;;3.28;;
74791;SDS011;63319;46.046;17.802;2022-11-20T01:55:54;5.57;;;3.00;;
74791;SDS011;63319;46.046;17.802;2022-11-20T01:58:59;5.35;;;3.15;;
74791;SDS011;63319;46.046;17.802;2022-11-20T02:02:06;6.15;;;2.92;;
74791;SDS011;63319;46.046;17.802;2022-11-20T02:05:14;5.65;;;3.22;;
74791;SDS011;63319;46.046;17.802;2022-11-20T02:08:27;6.20;;;3.15;;
74791;SDS011;63319;46.046;17.802;2022-11-20T02:11:31;6.80;;;3.33;;
74791;SDS011;63319;46.046;17.802;2022-11-20T02:14:33;6.65;;;3.15;;
74791;SDS011;63319;46.046;17.802;2022-11-20T02:17:36;6.25;;;3.30;;
74791;SDS011;63319;46.046;17.802;2022-11-20T02:20:40;5.85;;;3.08;;
74791;SDS011;63319;46.046;17.802;2022-11-20T02:24:05;6.30;;;3.00;;
74791;SDS011;63319;46.046;17.802;2022-11-20T02:27:14;6.17;;;2.90;;
74791;SDS011;63319;46.046;17.802;2022-11-20T02:30:18;6.57;;;2.88;;
74791;SDS011;63319;46.046;17.802;2022-11-20T02:33:21;5.63;;;3.15;;
74791;SDS011;63319;46.046;17.802;2022-11-20T02:36:24;5.22;;;2.60;;
74791;SDS011;63319;46.046;17.802;2022-11-20T02:39:29;5.78;;;2.92;;
74791;SDS011;63319;46.046;17.802;2022-11-20T02:42:32;6.00;;;3.10;;
74791;SDS011;63319;46.046;17.802;2022-11-20T02:45:35;5.68;;;2.83;;
74791;SDS011;63319;46.046;17.802;2022-11-20T02:48:38;5.95;;;2.92;;
74791;SDS011;63319;46.046;17.802;2022-11-20T02:51:40;5.70;;;3.03;;
74791;SDS011;63319;46.046;17.802;2022-11-20T02:54:43;4.78;;;2.65;;
74791;SDS011;63319;46.046;17.802;2022-11-20T02:57:46;5.47;;;2.60;;
74791;SDS011;63319;46.046;17.802;2022-11-20T03:00:48;5.55;;;2.90;;
74791;SDS011;63319;46.046;17.802;2022-11-20T03:03:51;6.25;;;3.22;;
74791;SDS011;63319;46.046;17.802;2022-11-20T03:06:56;5.68;;;2.60;;
74791;SDS011;63319;46.046;17.802;2022-11-20T03:09:59;4.88;;;2.60;;
74791;SDS011;63319;46.046;17.802;2022-11-20T03:13:02;5.87;;;2.93;;
74791;SDS011;63319;46.046;17.802;2022-11-20T03:16:09;5.20;;;2.58;;
74791;SDS011;63319;46.046;17.802;2022-11-20T03:19:16;5.18;;;2.80;;
74791;SDS011;63319;46.046;17.802;2022-11-20T03:22:19;5.50;;;2.60;;
74791;SDS011;63319;46.046;17.802;2022-11-20T03:25:22;5.18;;;3.20;;
74791;SDS011;63319;46.046;17.802;2022-11-20T03:28:25;4.70;;;2.40;;
74791;SDS011;63319;46.046;17.802;2022-11-20T03:31:32;5.05;;;2.40;;
74791;SDS011;63319;46.046;17.802;2022-11-20T03:34:36;4.88;;;2.63;;
74791;SDS011;63319;46.046;17.802;2022-11-20T03:37:39;5.13;;;2.65;;
74791;SDS011;63319;46.046;17.802;2022-11-20T03:40:41;4.97;;;2.50;;
74791;SDS011;63319;46.046;17.802;2022-11-20T03:43:48;5.73;;;2.73;;
74791;SDS011;63319;46.046;17.802;2022-11-20T03:46:55;6.03;;;2.80;;
74791;SDS011;63319;46.046;17.802;2022-11-20T03:49:58;5.25;;;2.60;;
74791;SDS011;63319;46.046;17.802;2022-11-20T03:53:01;4.40;;;2.10;;
74791;SDS011;63319;46.046;17.802;2022-11-20T03:56:03;5.30;;;2.90;;
74791;SDS011;63319;46.046;17.802;2022-11-20T03:59:09;5.00;;;2.90;;
74791;SDS011;63319;46.046;17.802;2022-11-20T04:02:12;5.53;;;2.45;;
74791;SDS011;63319;46.046;17.802;2022-11-20T04:05:15;5.07;;;2.50;;
74791;SDS011;63319;46.046;17.802;2022-11-20T04:08:18;5.53;;;2.50;;
74791;SDS011;63319;46.046;17.802;2022-11-20T04:11:25;5.03;;;2.65;;
74791;SDS011;63319;46.046;17.802;2022-11-20T04:14:30;5.23;;;2.70;;
74791;SDS011;63319;46.046;17.802;2022-11-20T04:17:32;4.97;;;2.45;;
74791;SDS011;63319;46.046;17.802;2022-11-20T04:20:35;5.25;;;2.75;;
74791;SDS011;63319;46.046;17.802;2022-11-20T04:23:38;6.25;;;2.80;;
74791;SDS011;63319;46.046;17.802;2022-11-20T04:26:41;5.82;;;3.10;;
74791;SDS011;63319;46.046;17.802;2022-11-20T04:29:43;4.97;;;2.30;;
74791;SDS011;63319;46.046;17.802;2022-11-20T04:32:46;4.72;;;2.65;;
74791;SDS011;63319;46.046;17.802;2022-11-20T04:35:49;5.05;;;2.70;;
74791;SDS011;63319;46.046;17.802;2022-11-20T04:38:52;4.97;;;2.50;;
74791;SDS011;63319;46.046;17.802;2022-11-20T04:41:58;5.45;;;3.13;;
74791;SDS011;63319;46.046;17.802;2022-11-20T04:45:18;4.30;;;2.30;;
74791;SDS011;63319;46.046;17.802;2022-11-20T04:48:21;5.43;;;2.75;;
74791;SDS011;63319;46.046;17.802;2022-11-20T04:51:25;5.38;;;2.85;;
74791;SDS011;63319;46.046;17.802;2022-11-20T04:54:30;5.95;;;3.22;;
74791;SDS011;63319;46.046;17.802;2022-11-20T04:57:33;5.07;;;2.72;;
74791;SDS011;63319;46.046;17.802;2022-11-20T05:00:35;4.90;;;2.60;;
74791;SDS011;63319;46.046;17.802;2022-11-20T05:03:38;5.30;;;2.50;;
74791;SDS011;63319;46.046;17.802;2022-11-20T05:06:43;5.18;;;2.75;;
74791;SDS011;63319;46.046;17.802;2022-11-20T05:09:47;5.18;;;2.60;;
74791;SDS011;63319;46.046;17.802;2022-11-20T05:12:50;5.05;;;2.90;;
74791;SDS011;63319;46.046;17.802;2022-11-20T05:15:53;5.13;;;2.30;;
74791;SDS011;63319;46.046;17.802;2022-11-20T05:18:56;5.35;;;2.78;;
74791;SDS011;63319;46.046;17.802;2022-11-20T05:21:59;5.60;;;2.75;;
74791;SDS011;63319;46.046;17.802;2022-11-20T05:25:02;5.15;;;2.60;;
74791;SDS011;63319;46.046;17.802;2022-11-20T05:28:04;4.57;;;2.50;;
74791;SDS011;63319;46.046;17.802;2022-11-20T05:31:08;4.80;;;2.40;;
74791;SDS011;63319;46.046;17.802;2022-11-20T05:34:12;5.18;;;2.80;;
74791;SDS011;63319;46.046;17.802;2022-11-20T05:37:14;4.07;;;2.33;;
74791;SDS011;63319;46.046;17.802;2022-11-20T05:40:17;5.22;;;2.40;;
74791;SDS011;63319;46.046;17.802;2022-11-20T05:43:20;5.15;;;2.83;;
74791;SDS011;63319;46.046;17.802;2022-11-20T05:46:22;4.60;;;2.33;;
74791;SDS011;63319;46.046;17.802;2022-11-20T05:49:30;4.55;;;2.17;;
74791;SDS011;63319;46.046;17.802;2022-11-20T05:52:33;5.40;;;2.70;;
74791;SDS011;63319;46.046;17.802;2022-11-20T05:55:36;4.95;;;2.47;;
74791;SDS011;63319;46.046;17.802;2022-11-20T05:58:38;5.25;;;2.83;;
74791;SDS011;63319;46.046;17.802;2022-11-20T06:01:41;4.63;;;2.10;;
74791;SDS011;63319;46.046;17.802;2022-11-20T06:04:44;5.32;;;2.47;;
74791;SDS011;63319;46.046;17.802;2022-11-20T06:07:47;5.05;;;2.67;;
74791;SDS011;63319;46.046;17.802;2022-11-20T06:10:53;5.20;;;2.63;;
74791;SDS011;63319;46.046;17.802;2022-11-20T06:13:57;5.15;;;2.58;;
74791;SDS011;63319;46.046;17.802;2022-11-20T06:17:00;4.93;;;2.43;;
74791;SDS011;63319;46.046;17.802;2022-11-20T06:20:02;5.38;;;3.00;;
74791;SDS011;63319;46.046;17.802;2022-11-20T06:23:06;4.13;;;2.30;;
74791;SDS011;63319;46.046;17.802;2022-11-20T06:26:09;5.15;;;2.55;;
74791;SDS011;63319;46.046;17.802;2022-11-20T06:29:13;4.80;;;2.42;;
74791;SDS011;63319;46.046;17.802;2022-11-20T06:32:16;5.47;;;2.80;;
74791;SDS011;63319;46.046;17.802;2022-11-20T06:35:19;4.72;;;2.33;;
74791;SDS011;63319;46.046;17.802;2022-11-20T06:38:21;4.97;;;2.50;;
74791;SDS011;63319;46.046;17.802;2022-11-20T06:41:24;5.65;;;2.70;;
74791;SDS011;63319;46.046;17.802;2022-11-20T06:44:27;5.38;;;2.83;;
74791;SDS011;63319;46.046;17.802;2022-11-20T06:47:30;5.13;;;2.57;;
74791;SDS011;63319;46.046;17.802;2022-11-20T06:50:32;4.57;;;2.22;;
74791;SDS011;63319;46.046;17.802;2022-11-20T06:53:36;5.05;;;2.47;;
74791;SDS011;63319;46.046;17.802;2022-11-20T06:56:39;5.60;;;2.90;;
74791;SDS011;63319;46.046;17.802;2022-11-20T06:59:41;5.68;;;3.10;;
74791;SDS011;63319;46.046;17.802;2022-11-20T07:02:44;5.90;;;2.23;;
74791;SDS011;63319;46.046;17.802;2022-11-20T07:05:47;3.97;;;2.00;;
74791;SDS011;63319;46.046;17.802;2022-11-20T07:08:50;5.95;;;2.40;;
74791;SDS011;63319;46.046;17.802;2022-11-20T07:11:54;4.55;;;2.15;;
74791;SDS011;63319;46.046;17.802;2022-11-20T07:14:57;5.13;;;3.03;;
74791;SDS011;63319;46.046;17.802;2022-11-20T07:18:00;4.67;;;2.47;;
74791;SDS011;63319;46.046;17.802;2022-11-20T07:21:03;4.75;;;2.40;;
74791;SDS011;63319;46.046;17.802;2022-11-20T07:24:08;4.82;;;2.40;;
74791;SDS011;63319;46.046;17.802;2022-11-20T07:27:10;4.95;;;2.60;;
74791;SDS011;63319;46.046;17.802;2022-11-20T07:30:13;4.47;;;2.40;;
74791;SDS011;63319;46.046;17.802;2022-11-20T07:33:17;4.77;;;2.50;;
74791;SDS011;63319;46.046;17.802;2022-11-20T07:36:20;5.00;;;2.90;;
74791;SDS011;63319;46.046;17.802;2022-11-20T07:39:22;4.68;;;2.25;;
74791;SDS011;63319;46.046;17.802;2022-11-20T07:42:25;5.43;;;3.10;;
74791;SDS011;63319;46.046;17.802;2022-11-20T07:45:28;5.55;;;2.80;;
74791;SDS011;63319;46.046;17.802;2022-11-20T07:48:31;4.47;;;2.13;;
74791;SDS011;63319;46.046;17.802;2022-11-20T07:51:33;5.00;;;2.50;;
74791;SDS011;63319;46.046;17.802;2022-11-20T07:54:36;5.18;;;2.70;;
74791;SDS011;63319;46.046;17.802;2022-11-20T07:57:39;4.80;;;2.30;;
74791;SDS011;63319;46.046;17.802;2022-11-20T08:00:42;4.55;;;2.53;;
74791;SDS011;63319;46.046;17.802;2022-11-20T08:03:45;5.13;;;2.60;;
74791;SDS011;63319;46.046;17.802;2022-11-20T08:06:47;4.75;;;2.28;;
74791;SDS011;63319;46.046;17.802;2022-11-20T08:09:50;5.53;;;2.60;;
74791;SDS011;63319;46.046;17.802;2022-11-20T08:12:53;4.97;;;2.50;;
74791;SDS011;63319;46.046;17.802;2022-11-20T08:16:18;4.50;;;2.25;;
74791;SDS011;63319;46.046;17.802;2022-11-20T08:19:29;5.77;;;3.00;;
74791;SDS011;63319;46.046;17.802;2022-11-20T08:22:32;3.90;;;2.10;;
74791;SDS011;63319;46.046;17.802;2022-11-20T08:25:35;4.72;;;2.63;;
74791;SDS011;63319;46.046;17.802;2022-11-20T08:28:39;5.43;;;2.30;;
74791;SDS011;63319;46.046;17.802;2022-11-20T08:31:42;5.00;;;2.80;;
74791;SDS011;63319;46.046;17.802;2022-11-20T08:34:45;4.67;;;2.60;;
74791;SDS011;63319;46.046;17.802;2022-11-20T08:37:48;5.40;;;2.63;;
74791;SDS011;63319;46.046;17.802;2022-11-20T08:40:51;4.68;;;2.33;;
74791;SDS011;63319;46.046;17.802;2022-11-20T08:44:13;5.40;;;2.95;;
74791;SDS011;63319;46.046;17.802;2022-11-20T08:47:15;6.55;;;3.13;;
74791;SDS011;63319;46.046;17.802;2022-11-20T08:50:21;5.40;;;2.60;;
74791;SDS011;63319;46.046;17.802;2022-11-20T08:53:27;5.53;;;2.90;;
74791;SDS011;63319;46.046;17.802;2022-11-20T08:56:30;5.20;;;2.55;;
74791;SDS011;63319;46.046;17.802;2022-11-20T08:59:33;5.30;;;2.85;;
74791;SDS011;63319;46.046;17.802;2022-11-20T09:02:56;4.72;;;2.63;;
74791;SDS011;63319;46.046;17.802;2022-11-20T09:06:01;5.37;;;2.77;;
74791;SDS011;63319;46.046;17.802;2022-11-20T09:09:08;4.60;;;2.40;;
74791;SDS011;63319;46.046;17.802;2022-11-20T09:12:11;5.13;;;2.80;;
74791;SDS011;63319;46.046;17.802;2022-11-20T09:15:13;5.43;;;2.88;;
74791;SDS011;63319;46.046;17.802;2022-11-20T09:18:16;5.03;;;2.90;;
74791;SDS011;63319;46.046;17.802;2022-11-20T09:21:19;5.50;;;2.70;;
74791;SDS011;63319;46.046;17.802;2022-11-20T09:24:21;4.50;;;2.40;;
74791;SDS011;63319;46.046;17.802;2022-11-20T09:27:24;4.90;;;2.50;;
74791;SDS011;63319;46.046;17.802;2022-11-20T09:30:27;5.18;;;2.50;;
74791;SDS011;63319;46.046;17.802;2022-11-20T09:33:30;4.53;;;2.20;;
74791;SDS011;63319;46.046;17.802;2022-11-20T09:36:32;4.53;;;2.30;;
74791;SDS011;63319;46.046;17.802;2022-11-20T09:39:35;3.85;;;2.30;;
74791;SDS011;63319;46.046;17.802;2022-11-20T09:55:52;5.18;;;2.60;;
74791;SDS011;63319;46.046;17.802;2022-11-20T09:58:57;5.15;;;2.53;;
74791;SDS011;63319;46.046;17.802;2022-11-20T10:02:19;4.88;;;2.35;;
74791;SDS011;63319;46.046;17.802;2022-11-20T10:05:33;5.07;;;2.42;;
74791;SDS011;63319;46.046;17.802;2022-11-20T10:18:33;5.15;;;2.65;;
74791;SDS011;63319;46.046;17.802;2022-11-20T10:25:23;4.73;;;2.70;;
74791;SDS011;63319;46.046;17.802;2022-11-20T10:32:00;5.00;;;2.50;;
74791;SDS011;63319;46.046;17.802;2022-11-20T10:35:19;5.05;;;3.03;;
74791;SDS011;63319;46.046;17.802;2022-11-20T10:38:28;4.97;;;2.63;;
74791;SDS011;63319;46.046;17.802;2022-11-20T10:41:40;4.23;;;2.37;;
74791;SDS011;63319;46.046;17.802;2022-11-20T10:44:47;5.30;;;2.72;;
74791;SDS011;63319;46.046;17.802;2022-11-20T10:48:20;5.40;;;3.05;;
74791;SDS011;63319;46.046;17.802;2022-11-20T10:51:31;5.50;;;3.03;;
74791;SDS011;63319;46.046;17.802;2022-11-20T11:01:39;5.63;;;2.85;;
74791;SDS011;63319;46.046;17.802;2022-11-20T11:04:45;4.85;;;2.53;;
74791;SDS011;63319;46.046;17.802;2022-11-20T11:07:50;5.20;;;2.75;;
74791;SDS011;63319;46.046;17.802;2022-11-20T11:10:57;5.15;;;2.83;;
74791;SDS011;63319;46.046;17.802;2022-11-20T11:14:19;5.10;;;2.40;;
74791;SDS011;63319;46.046;17.802;2022-11-20T11:17:29;5.68;;;2.95;;
74791;SDS011;63319;46.046;17.802;2022-11-20T11:20:40;5.78;;;2.75;;
74791;SDS011;63319;46.046;17.802;2022-11-20T11:23:59;5.70;;;3.03;;
74791;SDS011;63319;46.046;17.802;2022-11-20T11:27:24;6.10;;;3.05;;
74791;SDS011;63319;46.046;17.802;2022-11-20T11:30:28;4.77;;;2.70;;
74791;SDS011;63319;46.046;17.802;2022-11-20T11:33:33;5.18;;;2.70;;
74791;SDS011;63319;46.046;17.802;2022-11-20T11:36:36;5.05;;;2.67;;
74791;SDS011;63319;46.046;17.802;2022-11-20T11:39:43;5.13;;;2.65;;
74791;SDS011;63319;46.046;17.802;2022-11-20T11:42:57;5.20;;;2.83;;
74791;SDS011;63319;46.046;17.802;2022-11-20T11:46:05;5.90;;;3.00;;
74791;SDS011;63319;46.046;17.802;2022-11-20T11:49:24;5.43;;;2.55;;
74791;SDS011;63319;46.046;17.802;2022-11-20T11:52:27;6.05;;;3.25;;
74791;SDS011;63319;46.046;17.802;2022-11-20T11:55:35;5.38;;;2.50;;
74791;SDS011;63319;46.046;17.802;2022-11-20T11:58:51;5.30;;;2.85;;
74791;SDS011;63319;46.046;17.802;2022-11-20T12:01:57;5.13;;;2.80;;
74791;SDS011;63319;46.046;17.802;2022-11-20T12:05:09;5.70;;;3.10;;
74791;SDS011;63319;46.046;17.802;2022-11-20T12:08:41;5.57;;;3.00;;
74791;SDS011;63319;46.046;17.802;2022-11-20T12:11:46;6.03;;;2.95;;
74791;SDS011;63319;46.046;17.802;2022-11-20T12:14:55;5.68;;;2.80;;
74791;SDS011;63319;46.046;17.802;2022-11-20T12:17:59;5.37;;;2.73;;
74791;SDS011;63319;46.046;17.802;2022-11-20T12:21:12;5.43;;;2.80;;
74791;SDS011;63319;46.046;17.802;2022-11-20T12:37:27;5.47;;;2.92;;
74791;SDS011;63319;46.046;17.802;2022-11-20T13:01:32;6.05;;;3.13;;
74791;SDS011;63319;46.046;17.802;2022-11-20T13:04:46;5.97;;;3.60;;
74791;SDS011;63319;46.046;17.802;2022-11-20T13:07:51;6.27;;;3.20;;
74791;SDS011;63319;46.046;17.802;2022-11-20T13:10:58;7.03;;;3.40;;
74791;SDS011;63319;46.046;17.802;2022-11-20T13:17:52;6.20;;;3.30;;
74791;SDS011;63319;46.046;17.802;2022-11-20T13:21:00;5.18;;;3.03;;
74791;SDS011;63319;46.046;17.802;2022-11-20T13:24:06;6.53;;;3.50;;
74791;SDS011;63319;46.046;17.802;2022-11-20T13:30:17;5.78;;;3.30;;
74791;SDS011;63319;46.046;17.802;2022-11-20T13:33:22;6.43;;;3.50;;
74791;SDS011;63319;46.046;17.802;2022-11-20T13:36:50;6.25;;;3.40;;
74791;SDS011;63319;46.046;17.802;2022-11-20T13:40:05;6.37;;;3.23;;
74791;SDS011;63319;46.046;17.802;2022-11-20T13:43:28;6.43;;;3.28;;
74791;SDS011;63319;46.046;17.802;2022-11-20T13:46:41;6.28;;;3.70;;
74791;SDS011;63319;46.046;17.802;2022-11-20T13:49:46;6.53;;;3.38;;
74791;SDS011;63319;46.046;17.802;2022-11-20T13:56:51;5.67;;;2.80;;
74791;SDS011;63319;46.046;17.802;2022-11-20T13:59:57;5.60;;;3.00;;
74791;SDS011;63319;46.046;17.802;2022-11-20T14:03:18;6.80;;;3.47;;
74791;SDS011;63319;46.046;17.802;2022-11-20T14:06:47;5.97;;;2.78;;
74791;SDS011;63319;46.046;17.802;2022-11-20T14:09:52;6.25;;;3.45;;
74791;SDS011;63319;46.046;17.802;2022-11-20T14:12:57;7.27;;;3.57;;
74791;SDS011;63319;46.046;17.802;2022-11-20T14:16:01;5.80;;;3.28;;
74791;SDS011;63319;46.046;17.802;2022-11-20T14:22:29;6.13;;;3.13;;
74791;SDS011;63319;46.046;17.802;2022-11-20T14:25:32;6.10;;;3.58;;
74791;SDS011;63319;46.046;17.802;2022-11-20T14:28:35;5.73;;;3.17;;
74791;SDS011;63319;46.046;17.802;2022-11-20T14:31:38;6.70;;;3.67;;
74791;SDS011;63319;46.046;17.802;2022-11-20T14:34:43;6.45;;;3.47;;
74791;SDS011;63319;46.046;17.802;2022-11-20T14:37:48;7.18;;;3.38;;
74791;SDS011;63319;46.046;17.802;2022-11-20T14:40:50;6.43;;;3.45;;
74791;SDS011;63319;46.046;17.802;2022-11-20T14:43:56;5.43;;;3.10;;
74791;SDS011;63319;46.046;17.802;2022-11-20T14:47:00;6.05;;;3.33;;
74791;SDS011;63319;46.046;17.802;2022-11-20T14:50:07;7.13;;;3.88;;
74791;SDS011;63319;46.046;17.802;2022-11-20T14:53:23;6.50;;;3.60;;
74791;SDS011;63319;46.046;17.802;2022-11-20T14:56:27;6.07;;;3.20;;
74791;SDS011;63319;46.046;17.802;2022-11-20T14:59:31;8.03;;;4.20;;
74791;SDS011;63319;46.046;17.802;2022-11-20T15:02:39;6.63;;;3.85;;
74791;SDS011;63319;46.046;17.802;2022-11-20T15:05:48;6.25;;;3.55;;
74791;SDS011;63319;46.046;17.802;2022-11-20T15:08:52;5.78;;;3.50;;
74791;SDS011;63319;46.046;17.802;2022-11-20T15:12:01;6.65;;;3.95;;
74791;SDS011;63319;46.046;17.802;2022-11-20T15:15:05;6.70;;;3.70;;
74791;SDS011;63319;46.046;17.802;2022-11-20T15:18:12;6.90;;;3.60;;
74791;SDS011;63319;46.046;17.802;2022-11-20T15:21:18;6.53;;;3.80;;
74791;SDS011;63319;46.046;17.802;2022-11-20T15:24:24;7.60;;;3.67;;
74791;SDS011;63319;46.046;17.802;2022-11-20T15:27:27;5.85;;;3.63;;
74791;SDS011;63319;46.046;17.802;2022-11-20T15:30:30;6.63;;;3.60;;
74791;SDS011;63319;46.046;17.802;2022-11-20T15:33:34;7.40;;;4.15;;
74791;SDS011;63319;46.046;17.802;2022-11-20T15:36:38;7.90;;;4.13;;
74791;SDS011;63319;46.046;17.802;2022-11-20T15:39:44;6.75;;;3.83;;
74791;SDS011;63319;46.046;17.802;2022-11-20T15:42:47;6.75;;;3.90;;
74791;SDS011;63319;46.046;17.802;2022-11-20T15:46:15;7.10;;;3.93;;
74791;SDS011;63319;46.046;17.802;2022-11-20T15:49:26;6.47;;;3.60;;
74791;SDS011;63319;46.046;17.802;2022-11-20T15:52:29;6.50;;;3.40;;
74791;SDS011;63319;46.046;17.802;2022-11-20T15:55:43;6.18;;;3.30;;
74791;SDS011;63319;46.046;17.802;2022-11-20T15:58:47;7.00;;;4.10;;
74791;SDS011;63319;46.046;17.802;2022-11-20T16:01:51;6.67;;;3.63;;
74791;SDS011;63319;46.046;17.802;2022-11-20T16:04:54;7.40;;;3.67;;
74791;SDS011;63319;46.046;17.802;2022-11-20T16:07:57;5.97;;;3.65;;
74791;SDS011;63319;46.046;17.802;2022-11-20T16:11:00;6.10;;;3.47;;
74791;SDS011;63319;46.046;17.802;2022-11-20T16:14:03;6.25;;;3.72;;
74791;SDS011;63319;46.046;17.802;2022-11-20T16:17:25;6.17;;;3.27;;
74791;SDS011;63319;46.046;17.802;2022-11-20T16:20:45;7.38;;;3.97;;
74791;SDS011;63319;46.046;17.802;2022-11-20T16:23:49;7.30;;;4.25;;
74791;SDS011;63319;46.046;17.802;2022-11-20T16:26:53;7.10;;;4.10;;
74791;SDS011;63319;46.046;17.802;2022-11-20T16:29:57;7.72;;;4.32;;
74791;SDS011;63319;46.046;17.802;2022-11-20T16:33:01;7.53;;;4.10;;
74791;SDS011;63319;46.046;17.802;2022-11-20T16:36:11;7.30;;;3.80;;
74791;SDS011;63319;46.046;17.802;2022-11-20T16:39:17;7.32;;;4.25;;
74791;SDS011;63319;46.046;17.802;2022-11-20T16:42:25;6.50;;;3.75;;
74791;SDS011;63319;46.046;17.802;2022-11-20T16:45:28;6.47;;;3.80;;
74791;SDS011;63319;46.046;17.802;2022-11-20T16:48:35;6.50;;;3.60;;
74791;SDS011;63319;46.046;17.802;2022-11-20T16:51:38;6.57;;;3.75;;
74791;SDS011;63319;46.046;17.802;2022-11-20T16:54:42;7.13;;;3.72;;
74791;SDS011;63319;46.046;17.802;2022-11-20T16:57:45;6.47;;;3.60;;
74791;SDS011;63319;46.046;17.802;2022-11-20T17:00:48;6.45;;;3.72;;
74791;SDS011;63319;46.046;17.802;2022-11-20T17:03:55;7.27;;;4.10;;
74791;SDS011;63319;46.046;17.802;2022-11-20T17:07:03;6.75;;;3.83;;
74791;SDS011;63319;46.046;17.802;2022-11-20T17:10:09;6.70;;;3.60;;
74791;SDS011;63319;46.046;17.802;2022-11-20T17:13:12;7.35;;;4.60;;
74791;SDS011;63319;46.046;17.802;2022-11-20T17:16:16;6.97;;;3.97;;
74791;SDS011;63319;46.046;17.802;2022-11-20T17:19:21;6.60;;;3.80;;
74791;SDS011;63319;46.046;17.802;2022-11-20T17:22:24;7.43;;;4.00;;
74791;SDS011;63319;46.046;17.802;2022-11-20T17:25:31;7.07;;;3.97;;
74791;SDS011;63319;46.046;17.802;2022-11-20T17:28:36;8.52;;;4.25;;
74791;SDS011;63319;46.046;17.802;2022-11-20T17:31:41;7.22;;;4.18;;
74791;SDS011;63319;46.046;17.802;2022-11-20T17:34:44;8.00;;;4.27;;
74791;SDS011;63319;46.046;17.802;2022-11-20T17:37:48;7.78;;;4.38;;
74791;SDS011;63319;46.046;17.802;2022-11-20T17:40:52;6.90;;;4.30;;
74791;SDS011;63319;46.046;17.802;2022-11-20T17:43:56;7.47;;;4.47;;
74791;SDS011;63319;46.046;17.802;2022-11-20T17:47:00;7.07;;;3.83;;
74791;SDS011;63319;46.046;17.802;2022-11-20T17:50:04;8.57;;;4.80;;
74791;SDS011;63319;46.046;17.802;2022-11-20T17:53:08;5.95;;;3.33;;
74791;SDS011;63319;46.046;17.802;2022-11-20T17:56:11;7.53;;;4.72;;
74791;SDS011;63319;46.046;17.802;2022-11-20T17:59:33;7.85;;;4.05;;
74791;SDS011;63319;46.046;17.802;2022-11-20T18:02:36;7.50;;;3.90;;
74791;SDS011;63319;46.046;17.802;2022-11-20T18:05:41;8.20;;;4.63;;
74791;SDS011;63319;46.046;17.802;2022-11-20T18:08:44;6.78;;;3.85;;
74791;SDS011;63319;46.046;17.802;2022-11-20T18:11:48;6.82;;;4.13;;
74791;SDS011;63319;46.046;17.802;2022-11-20T18:14:52;8.65;;;4.55;;
74791;SDS011;63319;46.046;17.802;2022-11-20T18:17:54;7.80;;;3.95;;
74791;SDS011;63319;46.046;17.802;2022-11-20T18:21:07;8.13;;;4.27;;
74791;SDS011;63319;46.046;17.802;2022-11-20T18:24:10;7.22;;;3.97;;
74791;SDS011;63319;46.046;17.802;2022-11-20T18:27:15;6.90;;;4.10;;
74791;SDS011;63319;46.046;17.802;2022-11-20T18:30:21;7.55;;;4.82;;
74791;SDS011;63319;46.046;17.802;2022-11-20T18:33:24;8.00;;;4.72;;
74791;SDS011;63319;46.046;17.802;2022-11-20T18:36:30;7.13;;;4.00;;
74791;SDS011;63319;46.046;17.802;2022-11-20T18:39:34;7.25;;;4.10;;
74791;SDS011;63319;46.046;17.802;2022-11-20T18:42:39;8.23;;;5.03;;
74791;SDS011;63319;46.046;17.802;2022-11-20T18:46:17;8.05;;;4.72;;
74791;SDS011;63319;46.046;17.802;2022-11-20T18:49:23;8.07;;;4.57;;
74791;SDS011;63319;46.046;17.802;2022-11-20T18:52:28;8.00;;;4.50;;
74791;SDS011;63319;46.046;17.802;2022-11-20T18:55:32;6.97;;;4.30;;
74791;SDS011;63319;46.046;17.802;2022-11-20T18:58:35;8.07;;;5.10;;
74791;SDS011;63319;46.046;17.802;2022-11-20T19:01:39;7.82;;;4.22;;
74791;SDS011;63319;46.046;17.802;2022-11-20T19:04:43;7.55;;;4.57;;
74791;SDS011;63319;46.046;17.802;2022-11-20T19:07:48;8.63;;;5.13;;
74791;SDS011;63319;46.046;17.802;2022-11-20T19:10:51;9.52;;;4.70;;
74791;SDS011;63319;46.046;17.802;2022-11-20T19:13:54;8.60;;;4.57;;
74791;SDS011;63319;46.046;17.802;2022-11-20T19:16:58;8.98;;;5.05;;
74791;SDS011;63319;46.046;17.802;2022-11-20T19:20:02;8.77;;;5.38;;
74791;SDS011;63319;46.046;17.802;2022-11-20T19:23:11;7.53;;;4.37;;
74791;SDS011;63319;46.046;17.802;2022-11-20T19:26:15;8.30;;;5.15;;
74791;SDS011;63319;46.046;17.802;2022-11-20T19:29:19;7.75;;;4.78;;
74791;SDS011;63319;46.046;17.802;2022-11-20T19:32:23;9.32;;;5.10;;
74791;SDS011;63319;46.046;17.802;2022-11-20T19:35:26;9.32;;;5.55;;
74791;SDS011;63319;46.046;17.802;2022-11-20T19:38:33;7.77;;;4.77;;
74791;SDS011;63319;46.046;17.802;2022-11-20T19:41:37;8.05;;;4.97;;
74791;SDS011;63319;46.046;17.802;2022-11-20T19:44:41;8.13;;;4.63;;
74791;SDS011;63319;46.046;17.802;2022-11-20T19:47:44;8.75;;;4.80;;